sensor_id;sensor_type;location;lat;lon;timestamp;P1;durP1;ratioP1;P2;durP2;ratioP2
20729;SDS011;10526;50.850;12.928;2023-04-01T00:01:44;2.47;;;0.90;;
20729;SDS011;10526;50.850;12.928;2023-04-01T00:06:06;0.88;;;0.82;;
20729;SDS011;10526;50.850;12.928;2023-04-01T00:10:28;4.53;;;1.00;;
20729;SDS011;10526;50.850;12.928;2023-04-01T00:14:50;5.80;;;1.00;;
20729;SDS011;10526;50.850;12.928;2023-04-01T00:19:13;2.03;;;1.00;;
20729;SDS011;10526;50.850;12.928;2023-04-01T00:23:36;3.17;;;1.20;;
20729;SDS011;10526;50.850;12.928;2023-04-01T00:27:58;3.40;;;0.95;;
20729;SDS011;10526;50.850;12.928;2023-04-01T00:32:21;1.13;;;0.82;;
20729;SDS011;10526;50.850;12.928;2023-04-01T00:36:43;3.65;;;1.20;;
20729;SDS011;10526;50.850;12.928;2023-04-01T00:41:05;0.65;;;0.55;;
20729;SDS011;10526;50.850;12.928;2023-04-01T00:49:57;2.08;;;0.80;;
20729;SDS011;10526;50.850;12.928;2023-04-01T00:54:20;4.40;;;0.85;;
20729;SDS011;10526;50.850;12.928;2023-04-01T00:58:46;5.43;;;1.38;;
20729;SDS011;10526;50.850;12.928;2023-04-01T01:03:12;2.20;;;1.20;;
20729;SDS011;10526;50.850;12.928;2023-04-01T01:12:29;4.55;;;1.00;;
20729;SDS011;10526;50.850;12.928;2023-04-01T01:27:20;2.10;;;0.90;;
20729;SDS011;10526;50.850;12.928;2023-04-01T01:36:56;6.30;;;1.25;;
20729;SDS011;10526;50.850;12.928;2023-04-01T01:41:22;1.63;;;0.98;;
20729;SDS011;10526;50.850;12.928;2023-04-01T01:45:49;4.88;;;1.25;;
20729;SDS011;10526;50.850;12.928;2023-04-01T01:50:19;3.42;;;1.60;;
20729;SDS011;10526;50.850;12.928;2023-04-01T01:54:46;4.82;;;1.50;;
20729;SDS011;10526;50.850;12.928;2023-04-01T01:59:17;4.75;;;1.17;;
20729;SDS011;10526;50.850;12.928;2023-04-01T02:03:42;1.00;;;0.90;;
20729;SDS011;10526;50.850;12.928;2023-04-01T02:12:37;4.43;;;1.98;;
20729;SDS011;10526;50.850;12.928;2023-04-01T02:17:05;8.70;;;1.65;;
20729;SDS011;10526;50.850;12.928;2023-04-01T02:21:41;1.13;;;0.82;;
20729;SDS011;10526;50.850;12.928;2023-04-01T02:26:05;7.57;;;1.40;;
20729;SDS011;10526;50.850;12.928;2023-04-01T02:30:30;2.65;;;1.10;;
20729;SDS011;10526;50.850;12.928;2023-04-01T02:34:56;2.35;;;1.13;;
20729;SDS011;10526;50.850;12.928;2023-04-01T02:39:20;4.35;;;1.08;;
20729;SDS011;10526;50.850;12.928;2023-04-01T02:43:43;2.65;;;1.27;;
20729;SDS011;10526;50.850;12.928;2023-04-01T02:48:05;7.25;;;1.50;;
20729;SDS011;10526;50.850;12.928;2023-04-01T02:52:28;2.05;;;0.88;;
20729;SDS011;10526;50.850;12.928;2023-04-01T02:56:54;2.58;;;1.00;;
20729;SDS011;10526;50.850;12.928;2023-04-01T03:01:16;1.63;;;0.82;;
20729;SDS011;10526;50.850;12.928;2023-04-01T03:05:39;4.43;;;0.70;;
20729;SDS011;10526;50.850;12.928;2023-04-01T03:10:01;2.33;;;1.10;;
20729;SDS011;10526;50.850;12.928;2023-04-01T03:14:23;5.55;;;1.88;;
20729;SDS011;10526;50.850;12.928;2023-04-01T03:18:45;4.20;;;1.08;;
20729;SDS011;10526;50.850;12.928;2023-04-01T03:23:08;5.70;;;0.80;;
20729;SDS011;10526;50.850;12.928;2023-04-01T03:27:30;4.72;;;1.10;;
20729;SDS011;10526;50.850;12.928;2023-04-01T03:31:53;2.17;;;0.77;;
20729;SDS011;10526;50.850;12.928;2023-04-01T03:36:15;1.45;;;0.88;;
20729;SDS011;10526;50.850;12.928;2023-04-01T03:40:41;4.80;;;1.17;;
20729;SDS011;10526;50.850;12.928;2023-04-01T03:45:05;0.50;;;0.50;;
20729;SDS011;10526;50.850;12.928;2023-04-01T03:49:27;6.50;;;1.33;;
20729;SDS011;10526;50.850;12.928;2023-04-01T03:53:49;5.43;;;1.15;;
20729;SDS011;10526;50.850;12.928;2023-04-01T03:58:11;5.78;;;1.02;;
20729;SDS011;10526;50.850;12.928;2023-04-01T04:02:34;7.18;;;1.25;;
20729;SDS011;10526;50.850;12.928;2023-04-01T04:06:57;7.55;;;1.00;;
20729;SDS011;10526;50.850;12.928;2023-04-01T04:11:20;2.67;;;0.80;;
20729;SDS011;10526;50.850;12.928;2023-04-01T04:15:45;3.63;;;1.00;;
20729;SDS011;10526;50.850;12.928;2023-04-01T04:20:08;1.00;;;0.73;;
20729;SDS011;10526;50.850;12.928;2023-04-01T04:24:30;1.20;;;0.93;;
20729;SDS011;10526;50.850;12.928;2023-04-01T04:28:59;1.98;;;0.82;;
20729;SDS011;10526;50.850;12.928;2023-04-01T04:33:24;3.33;;;1.00;;
20729;SDS011;10526;50.850;12.928;2023-04-01T04:37:47;2.97;;;0.80;;
20729;SDS011;10526;50.850;12.928;2023-04-01T04:42:10;4.88;;;0.98;;
20729;SDS011;10526;50.850;12.928;2023-04-01T04:46:32;4.60;;;0.75;;
20729;SDS011;10526;50.850;12.928;2023-04-01T04:51:04;3.22;;;0.98;;
20729;SDS011;10526;50.850;12.928;2023-04-01T04:55:26;0.85;;;0.85;;
20729;SDS011;10526;50.850;12.928;2023-04-01T05:00:08;2.53;;;1.08;;
20729;SDS011;10526;50.850;12.928;2023-04-01T05:04:43;2.83;;;0.85;;
20729;SDS011;10526;50.850;12.928;2023-04-01T05:09:05;7.13;;;1.40;;
20729;SDS011;10526;50.850;12.928;2023-04-01T05:13:28;1.75;;;0.82;;
20729;SDS011;10526;50.850;12.928;2023-04-01T05:17:51;1.58;;;0.60;;
20729;SDS011;10526;50.850;12.928;2023-04-01T05:22:13;2.88;;;1.20;;
20729;SDS011;10526;50.850;12.928;2023-04-01T05:26:37;1.67;;;0.52;;
20729;SDS011;10526;50.850;12.928;2023-04-01T05:30:59;3.28;;;1.05;;
20729;SDS011;10526;50.850;12.928;2023-04-01T05:35:29;7.45;;;1.30;;
20729;SDS011;10526;50.850;12.928;2023-04-01T05:39:51;5.10;;;1.25;;
20729;SDS011;10526;50.850;12.928;2023-04-01T05:44:13;1.50;;;0.85;;
20729;SDS011;10526;50.850;12.928;2023-04-01T05:48:35;4.22;;;1.00;;
20729;SDS011;10526;50.850;12.928;2023-04-01T05:52:58;3.47;;;0.80;;
20729;SDS011;10526;50.850;12.928;2023-04-01T05:57:20;6.03;;;1.35;;
20729;SDS011;10526;50.850;12.928;2023-04-01T06:01:43;2.75;;;0.80;;
20729;SDS011;10526;50.850;12.928;2023-04-01T06:06:13;0.73;;;0.73;;
20729;SDS011;10526;50.850;12.928;2023-04-01T06:15:57;5.72;;;0.95;;
20729;SDS011;10526;50.850;12.928;2023-04-01T06:45:06;3.28;;;1.08;;
20729;SDS011;10526;50.850;12.928;2023-04-01T06:50:19;3.75;;;1.25;;
20729;SDS011;10526;50.850;12.928;2023-04-01T06:55:36;3.83;;;0.93;;
20729;SDS011;10526;50.850;12.928;2023-04-01T07:00:32;1.92;;;0.70;;
20729;SDS011;10526;50.850;12.928;2023-04-01T07:05:05;9.07;;;1.33;;
20729;SDS011;10526;50.850;12.928;2023-04-01T07:09:31;0.82;;;0.57;;
20729;SDS011;10526;50.850;12.928;2023-04-01T07:14:29;4.93;;;1.30;;
20729;SDS011;10526;50.850;12.928;2023-04-01T07:19:03;1.10;;;0.98;;
20729;SDS011;10526;50.850;12.928;2023-04-01T07:23:54;7.43;;;1.95;;
20729;SDS011;10526;50.850;12.928;2023-04-01T07:28:43;4.55;;;1.58;;
20729;SDS011;10526;50.850;12.928;2023-04-01T07:33:33;7.10;;;1.50;;
20729;SDS011;10526;50.850;12.928;2023-04-01T07:57:34;8.43;;;1.95;;
20729;SDS011;10526;50.850;12.928;2023-04-01T08:07:15;7.15;;;2.13;;
20729;SDS011;10526;50.850;12.928;2023-04-01T08:12:19;4.65;;;1.48;;
20729;SDS011;10526;50.850;12.928;2023-04-01T08:16:58;5.43;;;1.45;;
20729;SDS011;10526;50.850;12.928;2023-04-01T08:21:52;5.82;;;1.50;;
20729;SDS011;10526;50.850;12.928;2023-04-01T08:36:03;4.72;;;1.27;;
20729;SDS011;10526;50.850;12.928;2023-04-01T08:40:52;4.13;;;1.20;;
20729;SDS011;10526;50.850;12.928;2023-04-01T08:55:35;3.83;;;1.40;;
20729;SDS011;10526;50.850;12.928;2023-04-01T09:30:27;3.47;;;1.58;;
20729;SDS011;10526;50.850;12.928;2023-04-01T09:40:18;2.88;;;1.08;;
20729;SDS011;10526;50.850;12.928;2023-04-01T09:55:18;7.18;;;1.20;;
20729;SDS011;10526;50.850;12.928;2023-04-01T10:00:06;1.73;;;0.90;;
20729;SDS011;10526;50.850;12.928;2023-04-01T10:09:44;3.03;;;1.45;;
20729;SDS011;10526;50.850;12.928;2023-04-01T10:39:47;0.65;;;0.47;;
20729;SDS011;10526;50.850;12.928;2023-04-01T11:00:02;1.73;;;0.80;;
20729;SDS011;10526;50.850;12.928;2023-04-01T11:10:18;3.65;;;1.38;;
20729;SDS011;10526;50.850;12.928;2023-04-01T11:15:20;4.88;;;1.00;;
20729;SDS011;10526;50.850;12.928;2023-04-01T11:55:18;3.67;;;0.65;;
20729;SDS011;10526;50.850;12.928;2023-04-01T12:19:47;3.00;;;1.10;;
20729;SDS011;10526;50.850;12.928;2023-04-01T12:29:14;1.92;;;0.60;;
20729;SDS011;10526;50.850;12.928;2023-04-01T12:48:51;0.60;;;0.55;;
20729;SDS011;10526;50.850;12.928;2023-04-01T13:07:46;1.70;;;0.85;;
20729;SDS011;10526;50.850;12.928;2023-04-01T13:21:43;2.20;;;1.00;;
20729;SDS011;10526;50.850;12.928;2023-04-01T13:26:28;6.80;;;1.70;;
20729;SDS011;10526;50.850;12.928;2023-04-01T13:31:12;12.70;;;1.45;;
20729;SDS011;10526;50.850;12.928;2023-04-01T13:55:30;1.80;;;0.75;;
20729;SDS011;10526;50.850;12.928;2023-04-01T14:10:05;1.20;;;0.80;;
20729;SDS011;10526;50.850;12.928;2023-04-01T14:15:22;5.30;;;0.77;;
20729;SDS011;10526;50.850;12.928;2023-04-01T14:20:51;1.92;;;0.85;;
20729;SDS011;10526;50.850;12.928;2023-04-01T14:29:48;1.73;;;0.95;;
20729;SDS011;10526;50.850;12.928;2023-04-01T14:58:58;3.17;;;1.02;;
20729;SDS011;10526;50.850;12.928;2023-04-01T15:03:26;1.60;;;1.05;;
20729;SDS011;10526;50.850;12.928;2023-04-01T15:17:39;3.47;;;0.98;;
20729;SDS011;10526;50.850;12.928;2023-04-01T15:27:25;1.05;;;0.70;;
20729;SDS011;10526;50.850;12.928;2023-04-01T15:32:21;2.67;;;0.82;;
20729;SDS011;10526;50.850;12.928;2023-04-01T15:36:53;6.82;;;1.60;;
20729;SDS011;10526;50.850;12.928;2023-04-01T15:41:48;2.03;;;0.88;;
20729;SDS011;10526;50.850;12.928;2023-04-01T15:46:46;0.60;;;0.60;;
20729;SDS011;10526;50.850;12.928;2023-04-01T15:51:19;3.90;;;1.00;;
20729;SDS011;10526;50.850;12.928;2023-04-01T16:01:32;2.58;;;0.85;;
20729;SDS011;10526;50.850;12.928;2023-04-01T16:11:18;1.40;;;1.30;;
20729;SDS011;10526;50.850;12.928;2023-04-01T16:16:00;4.60;;;1.80;;
20729;SDS011;10526;50.850;12.928;2023-04-01T16:26:05;2.40;;;0.93;;
20729;SDS011;10526;50.850;12.928;2023-04-01T16:31:13;1.42;;;0.80;;
20729;SDS011;10526;50.850;12.928;2023-04-01T16:36:09;0.95;;;0.77;;
20729;SDS011;10526;50.850;12.928;2023-04-01T16:49:53;4.07;;;0.80;;
20729;SDS011;10526;50.850;12.928;2023-04-01T16:59:27;1.05;;;0.60;;
20729;SDS011;10526;50.850;12.928;2023-04-01T17:24:35;1.17;;;0.88;;
20729;SDS011;10526;50.850;12.928;2023-04-01T17:44:04;1.13;;;0.77;;
20729;SDS011;10526;50.850;12.928;2023-04-01T17:59:17;3.88;;;1.70;;
20729;SDS011;10526;50.850;12.928;2023-04-01T18:13:25;5.70;;;1.85;;
20729;SDS011;10526;50.850;12.928;2023-04-01T18:18:11;2.97;;;1.27;;
20729;SDS011;10526;50.850;12.928;2023-04-01T18:22:57;3.60;;;1.30;;
20729;SDS011;10526;50.850;12.928;2023-04-01T18:32:50;1.63;;;1.08;;
20729;SDS011;10526;50.850;12.928;2023-04-01T18:52:21;1.25;;;1.00;;
20729;SDS011;10526;50.850;12.928;2023-04-01T18:56:34;3.13;;;1.33;;
20729;SDS011;10526;50.850;12.928;2023-04-01T19:01:11;5.45;;;1.70;;
20729;SDS011;10526;50.850;12.928;2023-04-01T19:05:45;3.13;;;1.33;;
20729;SDS011;10526;50.850;12.928;2023-04-01T19:10:14;2.25;;;1.20;;
20729;SDS011;10526;50.850;12.928;2023-04-01T20:17:49;8.57;;;3.30;;
20729;SDS011;10526;50.850;12.928;2023-04-01T20:22:22;6.20;;;2.63;;
20729;SDS011;10526;50.850;12.928;2023-04-01T20:26:48;5.70;;;2.17;;
20729;SDS011;10526;50.850;12.928;2023-04-01T20:31:25;3.30;;;2.08;;
20729;SDS011;10526;50.850;12.928;2023-04-01T20:36:12;5.63;;;2.33;;
20729;SDS011;10526;50.850;12.928;2023-04-01T20:41:06;11.45;;;4.13;;
20729;SDS011;10526;50.850;12.928;2023-04-01T20:50:31;11.82;;;4.03;;
20729;SDS011;10526;50.850;12.928;2023-04-01T21:00:03;5.68;;;2.53;;
20729;SDS011;10526;50.850;12.928;2023-04-01T21:05:18;3.97;;;1.70;;
20729;SDS011;10526;50.850;12.928;2023-04-01T21:10:21;3.78;;;1.50;;
20729;SDS011;10526;50.850;12.928;2023-04-01T21:34:35;3.30;;;1.17;;
20729;SDS011;10526;50.850;12.928;2023-04-01T21:59:30;2.78;;;1.48;;
20729;SDS011;10526;50.850;12.928;2023-04-01T22:08:40;2.20;;;1.50;;
20729;SDS011;10526;50.850;12.928;2023-04-01T22:18:23;4.32;;;1.80;;
20729;SDS011;10526;50.850;12.928;2023-04-01T22:23:34;3.25;;;1.70;;
20729;SDS011;10526;50.850;12.928;2023-04-01T22:28:27;3.08;;;1.52;;
20729;SDS011;10526;50.850;12.928;2023-04-01T22:33:19;2.45;;;1.42;;
20729;SDS011;10526;50.850;12.928;2023-04-01T22:42:36;1.45;;;0.57;;
20729;SDS011;10526;50.850;12.928;2023-04-01T22:52:33;5.05;;;0.73;;
20729;SDS011;10526;50.850;12.928;2023-04-01T22:57:08;0.63;;;0.63;;
20729;SDS011;10526;50.850;12.928;2023-04-01T23:01:55;1.75;;;0.82;;
20729;SDS011;10526;50.850;12.928;2023-04-01T23:06:31;2.90;;;1.00;;
20729;SDS011;10526;50.850;12.928;2023-04-01T23:11:03;3.92;;;1.73;;
20729;SDS011;10526;50.850;12.928;2023-04-01T23:15:29;4.53;;;1.67;;
20729;SDS011;10526;50.850;12.928;2023-04-01T23:20:12;4.32;;;1.88;;
20729;SDS011;10526;50.850;12.928;2023-04-01T23:24:49;3.70;;;1.98;;
20729;SDS011;10526;50.850;12.928;2023-04-01T23:29:21;11.38;;;1.90;;
20729;SDS011;10526;50.850;12.928;2023-04-01T23:33:44;5.15;;;2.03;;
20729;SDS011;10526;50.850;12.928;2023-04-01T23:38:15;4.60;;;2.30;;
20729;SDS011;10526;50.850;12.928;2023-04-01T23:42:39;6.43;;;2.70;;
20729;SDS011;10526;50.850;12.928;2023-04-01T23:47:03;7.78;;;2.67;;
20729;SDS011;10526;50.850;12.928;2023-04-01T23:51:27;6.20;;;2.42;;
20729;SDS011;10526;50.850;12.928;2023-04-01T23:56:00;4.88;;;2.30;;
